首页
METAR-TAF:

METAR-TAF

机场 :

阿爾伯克基國際機場

阿布奎基, 新墨西哥州, 美国

纬度: 35-02-30N, 经度: 106-36-53W, 海拔: 1631米

当前天气观测

该预报发布于26分钟前的20:52 UTC
风速6节,风向南转西南
温度 6°C
湿度 65%
气压 1023 hPa
能見度: 16.1公里
多云层高于19000英尺

METAR: KABQ 112052Z 21006KT 10SM BKN190 06/00 A3022 RMK AO2 SLP230 T00610000 56030

时间: 14:18 (21:18 UTC)

预报

该预报发布于3小时和39分钟前的17:39 UTC
预报有效从11日的 18点(UTC)到 12日的 18点(UTC)
风速5节,风向多变
能見度: 10公里
多云层高于25000英尺
从 11日的 2000点(UTC)
风速6节,风向东南
能見度: 10公里
多云层高于25000英尺
从 12日的 0900点(UTC)
风速5节,风向
能見度: 10公里
散云层高于25000英尺

TAF: KABQ 111739Z 1118/1218 VRB05KT P6SM BKN250 FM112000 14006KT P6SM BKN250 FM120900 01005KT P6SM SCT250

超过4000个机场的气象观测和天气预报(METAR&TAF报告)。

可查询的气象台以黄色和红色小点在地图上表示。

将鼠标移到小点上方,可查看气象台名称。

然后点击查看天气观测和预报。

如需切换地图:点击带黑十字的绿色按钮放大地图;点击带横线的绿色按钮缩小地图;或者点击绿色箭头查看邻近地区的地图。


METAR-TAF: